Time;durP1;ratioP1;P1;durP2;ratioP2;P2;SDS_P1;SDS_P2;PMS_P1;PMS_P2;Temp;Humidity;BMP_temperature;BMP_pressure;BME280_temperature;BME280_humidity;BME280_pressure;Samples;Min_cycle;Max_cycle;Signal;HPM_P1;HPM_P2
2022/02/16 00:02:26;;;;;;;10.25;8.98;;;;;;;;;;5049002;28;20400;-80
2022/02/16 00:04:53;;;;;;;10.55;9.30;;;;;;;;;;5043873;28;20407;-79
2022/02/16 00:07:20;;;;;;;11.98;9.68;;;;;;;;;;5040583;28;20472;-81
2022/02/16 00:09:46;;;;;;;11.45;9.38;;;;;;;;;;5038419;28;20407;-80
2022/02/16 00:12:13;;;;;;;10.30;8.83;;;;;;;;;;5039314;28;20411;-80
2022/02/16 00:14:41;;;;;;;9.93;8.90;;;;;;;;;;5038839;28;20476;-81
2022/02/16 00:17:09;;;;;;;10.73;8.48;;;;;;;;;;5039928;28;20396;-79
2022/02/16 00:19:35;;;;;;;10.85;8.50;;;;;;;;;;5030888;28;20418;-82
2022/02/16 00:22:02;;;;;;;13.02;8.48;;;;;;;;;;5032035;28;20960;-82
2022/02/16 00:24:29;;;;;;;12.52;9.07;;;;;;;;;;5033817;28;20867;-79
2022/02/16 00:26:56;;;;;;;10.80;8.73;;;;;;;;;;5032421;28;20446;-81
2022/02/16 00:29:23;;;;;;;10.95;8.90;;;;;;;;;;5032279;28;20405;-82
2022/02/16 00:31:51;;;;;;;9.63;8.45;;;;;;;;;;5032282;28;20471;-80
2022/02/16 00:34:18;;;;;;;10.07;8.00;;;;;;;;;;5032196;28;20471;-80
2022/02/16 00:36:45;;;;;;;10.02;8.07;;;;;;;;;;5035206;28;20809;-80
2022/02/16 00:39:11;;;;;;;10.48;8.57;;;;;;;;;;5039402;28;20758;-81
2022/02/16 00:41:38;;;;;;;11.88;8.98;;;;;;;;;;5039733;28;20392;-80
2022/02/16 00:44:05;;;;;;;11.20;8.60;;;;;;;;;;5039539;28;20400;-80
2022/02/16 00:46:32;;;;;;;10.85;9.20;;;;;;;;;;5038932;28;20398;-80
2022/02/16 00:49:00;;;;;;;13.60;10.43;;;;;;;;;;5038112;28;20471;-81
2022/02/16 00:51:27;;;;;;;12.90;10.52;;;;;;;;;;5039089;28;20401;-80
2022/02/16 00:53:54;;;;;;;13.52;10.48;;;;;;;;;;5039164;28;20783;-80
2022/02/16 00:56:21;;;;;;;13.15;10.13;;;;;;;;;;5039056;28;20461;-81
2022/02/16 00:58:48;;;;;;;14.98;10.68;;;;;;;;;;5039120;28;20465;-81
2022/02/16 01:01:14;;;;;;;14.60;10.90;;;;;;;;;;5036253;28;20401;-80
2022/02/16 01:03:41;;;;;;;16.75;10.90;;;;;;;;;;5038299;28;20397;-80
2022/02/16 01:06:10;;;;;;;16.35;11.27;;;;;;;;;;5038706;28;20405;-79
2022/02/16 01:08:36;;;;;;;16.43;11.37;;;;;;;;;;5030770;28;20493;-80
2022/02/16 01:11:03;;;;;;;14.60;11.02;;;;;;;;;;5030685;28;20408;-79
2022/02/16 01:13:30;;;;;;;16.27;11.35;;;;;;;;;;5030420;28;20968;-79
2022/02/16 01:15:57;;;;;;;16.80;11.98;;;;;;;;;;5030964;28;20481;-81
2022/02/16 01:18:24;;;;;;;23.42;15.50;;;;;;;;;;5030654;28;20412;-80
2022/02/16 01:20:50;;;;;;;32.42;18.45;;;;;;;;;;5030461;28;20876;-79
2022/02/16 01:23:19;;;;;;;34.35;20.02;;;;;;;;;;5030872;28;20532;-79
2022/02/16 01:25:46;;;;;;;35.15;19.83;;;;;;;;;;5029882;28;20406;-80
2022/02/16 01:28:12;;;;;;;43.83;23.15;;;;;;;;;;5030522;28;20397;-79
2022/02/16 01:30:39;;;;;;;45.22;23.98;;;;;;;;;;5034214;28;20416;-80
2022/02/16 01:33:06;;;;;;;33.03;19.38;;;;;;;;;;5029711;28;20413;-80
2022/02/16 01:35:33;;;;;;;27.15;16.45;;;;;;;;;;5029690;28;20399;-80
2022/02/16 01:38:00;;;;;;;30.42;17.77;;;;;;;;;;5037361;28;20411;-81
2022/02/16 01:40:28;;;;;;;28.45;16.60;;;;;;;;;;5029775;28;20755;-80
2022/02/16 01:42:55;;;;;;;25.77;16.53;;;;;;;;;;5029896;28;20463;-80
2022/02/16 01:45:26;;;;;;;29.77;17.00;;;;;;;;;;5029958;28;20405;-82
2022/02/16 01:47:53;;;;;;;30.42;18.08;;;;;;;;;;5029957;28;20497;-80
2022/02/16 01:50:20;;;;;;;35.03;19.40;;;;;;;;;;5031614;28;20402;-81
2022/02/16 01:52:47;;;;;;;32.92;20.10;;;;;;;;;;5029604;28;20492;-81
2022/02/16 01:55:14;;;;;;;34.35;19.60;;;;;;;;;;5030485;28;20397;-81
2022/02/16 01:57:44;;;;;;;34.65;20.30;;;;;;;;;;5033432;28;20401;-79
2022/02/16 02:00:12;;;;;;;36.30;20.27;;;;;;;;;;5047058;28;20453;-80
2022/02/16 02:02:39;;;;;;;37.65;21.88;;;;;;;;;;5046780;28;20440;-80
2022/02/16 02:05:07;;;;;;;37.08;21.05;;;;;;;;;;5040090;28;20408;-79
2022/02/16 02:07:36;;;;;;;34.67;21.15;;;;;;;;;;5053864;28;20435;-82
2022/02/16 02:10:04;;;;;;;37.20;21.33;;;;;;;;;;5049373;28;20405;-81
2022/02/16 02:12:31;;;;;;;39.90;22.27;;;;;;;;;;5044761;28;20471;-81
2022/02/16 02:14:59;;;;;;;31.40;19.52;;;;;;;;;;5044107;28;20471;-81
2022/02/16 02:17:26;;;;;;;31.03;18.73;;;;;;;;;;5035259;28;20816;-80
2022/02/16 02:19:53;;;;;;;32.05;17.85;;;;;;;;;;5033469;28;20405;-80
2022/02/16 02:22:21;;;;;;;28.02;16.48;;;;;;;;;;5036182;28;20409;-78
2022/02/16 02:24:48;;;;;;;27.40;16.40;;;;;;;;;;5028355;28;20405;-79
2022/02/16 02:27:15;;;;;;;19.70;13.32;;;;;;;;;;5038195;28;20406;-80
2022/02/16 02:29:42;;;;;;;22.55;14.10;;;;;;;;;;5028803;28;20412;-81
2022/02/16 02:32:09;;;;;;;19.95;13.20;;;;;;;;;;5028208;28;20409;-81
2022/02/16 02:34:35;;;;;;;19.85;13.02;;;;;;;;;;5030300;28;20460;-80
2022/02/16 02:37:02;;;;;;;16.80;12.00;;;;;;;;;;5040886;28;20393;-80
2022/02/16 02:39:31;;;;;;;16.30;11.20;;;;;;;;;;5039161;28;20419;-82
2022/02/16 02:41:57;;;;;;;13.82;10.70;;;;;;;;;;5033664;28;20408;-81
2022/02/16 02:44:24;;;;;;;14.17;10.93;;;;;;;;;;5028569;28;20409;-81
2022/02/16 02:46:51;;;;;;;15.07;11.60;;;;;;;;;;5028315;28;20497;-80
2022/02/16 02:49:18;;;;;;;13.57;10.60;;;;;;;;;;5028410;28;20424;-79
2022/02/16 02:51:45;;;;;;;12.40;9.85;;;;;;;;;;5027807;28;20420;-81
2022/02/16 02:54:12;;;;;;;12.00;10.30;;;;;;;;;;5028504;28;20949;-80
2022/02/16 02:56:40;;;;;;;12.55;9.68;;;;;;;;;;5040980;28;20477;-81
2022/02/16 02:59:07;;;;;;;11.07;9.68;;;;;;;;;;5034999;28;20424;-81
2022/02/16 03:01:34;;;;;;;12.23;9.10;;;;;;;;;;5033391;28;20822;-81
2022/02/16 03:04:01;;;;;;;11.15;9.13;;;;;;;;;;5033425;28;20809;-82
2022/02/16 03:06:27;;;;;;;12.83;9.90;;;;;;;;;;5036532;28;20842;-80
2022/02/16 03:08:54;;;;;;;10.80;9.65;;;;;;;;;;5034009;28;20405;-80
2022/02/16 03:11:21;;;;;;;11.48;9.10;;;;;;;;;;5037136;28;20875;-79
2022/02/16 03:13:50;;;;;;;11.27;9.40;;;;;;;;;;5036214;28;20425;-81
2022/02/16 03:16:17;;;;;;;11.03;9.00;;;;;;;;;;5040597;28;21117;-78
2022/02/16 03:18:44;;;;;;;11.55;8.98;;;;;;;;;;5035705;28;20393;-81
2022/02/16 03:21:10;;;;;;;10.73;9.23;;;;;;;;;;5040349;28;20413;-81
2022/02/16 03:23:37;;;;;;;11.57;9.15;;;;;;;;;;5040037;28;20411;-81
2022/02/16 03:26:04;;;;;;;11.35;8.85;;;;;;;;;;5038858;28;21720;-81
2022/02/16 03:28:31;;;;;;;10.80;9.03;;;;;;;;;;5036677;28;20878;-80
2022/02/16 03:30:59;;;;;;;11.07;9.20;;;;;;;;;;5037568;28;20397;-82
2022/02/16 03:33:26;;;;;;;11.07;9.20;;;;;;;;;;5039156;28;20877;-81
2022/02/16 03:35:53;;;;;;;10.95;9.45;;;;;;;;;;5038142;28;20807;-82
2022/02/16 03:38:20;;;;;;;11.30;9.48;;;;;;;;;;5036663;28;20409;-80
2022/02/16 03:40:46;;;;;;;11.15;9.55;;;;;;;;;;5038996;28;20404;-80
2022/02/16 03:43:14;;;;;;;10.90;9.13;;;;;;;;;;5035779;28;20406;-80
2022/02/16 03:45:41;;;;;;;11.32;9.68;;;;;;;;;;5038376;28;20400;-80
2022/02/16 03:48:09;;;;;;;10.55;9.45;;;;;;;;;;5035871;28;20401;-81
2022/02/16 03:50:36;;;;;;;9.63;8.35;;;;;;;;;;5038367;28;20449;-81
2022/02/16 03:53:03;;;;;;;10.27;9.15;;;;;;;;;;5036858;28;20400;-80
2022/02/16 03:55:29;;;;;;;11.57;9.98;;;;;;;;;;5037683;28;20413;-80
2022/02/16 03:57:56;;;;;;;10.77;9.27;;;;;;;;;;5039050;28;20480;-81
2022/02/16 04:00:23;;;;;;;11.73;9.80;;;;;;;;;;5039322;28;20458;-80
2022/02/16 04:02:50;;;;;;;11.43;9.02;;;;;;;;;;5042794;28;20415;-79
2022/02/16 04:05:18;;;;;;;11.30;9.40;;;;;;;;;;5047324;28;20877;-80
2022/02/16 04:07:45;;;;;;;10.68;9.57;;;;;;;;;;5041052;28;20456;-80
2022/02/16 04:10:12;;;;;;;11.20;9.18;;;;;;;;;;5038737;28;20412;-79
2022/02/16 04:12:39;;;;;;;10.85;8.70;;;;;;;;;;5034786;28;20459;-80
2022/02/16 04:15:07;;;;;;;9.88;8.65;;;;;;;;;;5037710;28;20427;-81
2022/02/16 04:17:33;;;;;;;10.27;9.25;;;;;;;;;;5035647;28;20449;-80
2022/02/16 04:20:00;;;;;;;11.38;9.35;;;;;;;;;;5036926;28;20951;-81
2022/02/16 04:22:28;;;;;;;11.50;9.93;;;;;;;;;;5036153;28;20956;-81
2022/02/16 04:24:55;;;;;;;10.48;9.15;;;;;;;;;;5036346;28;20456;-80
2022/02/16 04:27:22;;;;;;;11.40;9.85;;;;;;;;;;5037118;28;20400;-81
2022/02/16 04:29:49;;;;;;;10.70;9.60;;;;;;;;;;5035220;28;20409;-80
2022/02/16 04:32:15;;;;;;;10.65;9.35;;;;;;;;;;5038065;28;20415;-82
2022/02/16 04:34:42;;;;;;;10.60;9.23;;;;;;;;;;5034349;28;20444;-80
2022/02/16 04:37:09;;;;;;;10.20;9.17;;;;;;;;;;5038102;28;20538;-81
2022/02/16 04:39:37;;;;;;;10.15;9.10;;;;;;;;;;5034770;28;20451;-80
2022/02/16 04:42:04;;;;;;;10.77;9.68;;;;;;;;;;5037151;28;20401;-80
2022/02/16 04:44:32;;;;;;;11.23;9.80;;;;;;;;;;5035281;28;20404;-80
2022/02/16 04:46:58;;;;;;;11.05;9.35;;;;;;;;;;5036311;28;20412;-79
2022/02/16 04:49:25;;;;;;;11.03;9.70;;;;;;;;;;5036004;28;20400;-81
2022/02/16 04:51:52;;;;;;;11.13;9.45;;;;;;;;;;5038488;28;20453;-79
2022/02/16 04:54:19;;;;;;;10.60;9.18;;;;;;;;;;5034700;28;20889;-80
2022/02/16 04:56:47;;;;;;;10.00;8.93;;;;;;;;;;5037113;28;20408;-81
2022/02/16 04:59:14;;;;;;;11.10;9.35;;;;;;;;;;5034404;28;20405;-80
2022/02/16 05:01:41;;;;;;;11.05;9.60;;;;;;;;;;5037384;28;20412;-81
2022/02/16 05:04:08;;;;;;;11.50;9.80;;;;;;;;;;5035169;28;20426;-80
2022/02/16 05:06:37;;;;;;;12.23;9.57;;;;;;;;;;5040979;28;20445;-81
2022/02/16 05:09:04;;;;;;;11.10;9.63;;;;;;;;;;5036166;28;20398;-80
2022/02/16 05:11:31;;;;;;;11.63;9.77;;;;;;;;;;5038455;28;20396;-81
2022/02/16 05:14:00;;;;;;;11.27;10.05;;;;;;;;;;5042720;28;20841;-80
2022/02/16 05:16:27;;;;;;;13.13;11.13;;;;;;;;;;5041880;28;20404;-81
2022/02/16 05:18:55;;;;;;;17.00;12.65;;;;;;;;;;5038149;28;20461;-80
2022/02/16 05:21:22;;;;;;;14.18;11.70;;;;;;;;;;5039369;28;20415;-81
2022/02/16 05:23:49;;;;;;;15.03;12.90;;;;;;;;;;5040500;28;20407;-80
2022/02/16 05:26:16;;;;;;;17.05;13.25;;;;;;;;;;5038737;28;20411;-81
2022/02/16 05:28:43;;;;;;;15.40;12.73;;;;;;;;;;5041188;28;20403;-81
2022/02/16 05:31:11;;;;;;;15.90;12.85;;;;;;;;;;5041297;28;20461;-80
2022/02/16 05:33:38;;;;;;;15.60;13.57;;;;;;;;;;5039743;28;20433;-81
2022/02/16 05:36:05;;;;;;;16.17;13.25;;;;;;;;;;5041173;28;20413;-80
2022/02/16 05:38:33;;;;;;;18.10;13.32;;;;;;;;;;5040760;28;20403;-80
2022/02/16 05:41:00;;;;;;;16.50;13.75;;;;;;;;;;5040704;28;20404;-81
2022/02/16 05:43:27;;;;;;;17.13;13.52;;;;;;;;;;5040573;28;20400;-80
2022/02/16 05:45:54;;;;;;;18.42;14.00;;;;;;;;;;5040752;28;20465;-80
2022/02/16 05:48:22;;;;;;;18.33;14.57;;;;;;;;;;5037789;28;20445;-81
2022/02/16 05:50:49;;;;;;;18.70;15.02;;;;;;;;;;5042025;28;20461;-81
2022/02/16 05:53:17;;;;;;;19.27;14.60;;;;;;;;;;5035863;28;20837;-80
2022/02/16 05:55:43;;;;;;;19.70;14.55;;;;;;;;;;5040676;28;20480;-80
2022/02/16 05:58:10;;;;;;;20.03;14.83;;;;;;;;;;5035525;28;20407;-81
2022/02/16 06:00:37;;;;;;;24.30;16.23;;;;;;;;;;5040365;28;20395;-81
2022/02/16 06:03:04;;;;;;;27.33;17.15;;;;;;;;;;5040330;28;21346;-80
2022/02/16 06:05:33;;;;;;;29.15;17.58;;;;;;;;;;5038978;28;20513;-81
2022/02/16 06:08:00;;;;;;;27.42;17.67;;;;;;;;;;5036163;28;20439;-80
2022/02/16 06:10:27;;;;;;;35.08;20.17;;;;;;;;;;5040576;28;20471;-81
2022/02/16 06:12:54;;;;;;;38.03;21.85;;;;;;;;;;5035338;28;20451;-80
2022/02/16 06:15:21;;;;;;;39.22;22.92;;;;;;;;;;5038721;28;20420;-81
2022/02/16 06:17:48;;;;;;;42.43;23.33;;;;;;;;;;5035896;28;20789;-80
2022/02/16 06:20:14;;;;;;;45.03;24.35;;;;;;;;;;5035340;28;20461;-82
2022/02/16 06:22:43;;;;;;;43.80;23.70;;;;;;;;;;5035507;28;20439;-80
2022/02/16 06:25:10;;;;;;;48.20;25.02;;;;;;;;;;5037783;28;20403;-81
2022/02/16 06:27:37;;;;;;;46.13;24.50;;;;;;;;;;5038692;28;20484;-81
2022/02/16 06:30:06;;;;;;;48.07;24.60;;;;;;;;;;5036455;28;20412;-82
2022/02/16 06:32:33;;;;;;;47.78;24.33;;;;;;;;;;5038558;28;20411;-81
2022/02/16 06:35:00;;;;;;;44.63;22.23;;;;;;;;;;5036172;28;20431;-81
2022/02/16 06:37:27;;;;;;;40.13;22.42;;;;;;;;;;5033882;28;20401;-81
2022/02/16 06:39:55;;;;;;;36.75;19.80;;;;;;;;;;5037069;28;20401;-79
2022/02/16 06:42:22;;;;;;;29.85;17.25;;;;;;;;;;5037929;28;20794;-80
2022/02/16 06:44:48;;;;;;;23.88;15.00;;;;;;;;;;5039841;28;20408;-80
2022/02/16 06:47:15;;;;;;;21.85;14.10;;;;;;;;;;5028985;28;21129;-80
2022/02/16 06:49:42;;;;;;;18.17;12.07;;;;;;;;;;5035082;28;20453;-80
2022/02/16 06:52:09;;;;;;;16.40;11.80;;;;;;;;;;5046539;28;20407;-81
2022/02/16 06:54:36;;;;;;;18.70;12.32;;;;;;;;;;5043251;28;20415;-82
2022/02/16 06:57:04;;;;;;;16.90;11.70;;;;;;;;;;5042332;28;20408;-80
2022/02/16 06:59:31;;;;;;;18.97;13.80;;;;;;;;;;5047303;28;20403;-81
2022/02/16 07:01:58;;;;;;;49.33;20.30;;;;;;;;;;5051408;28;20411;-80
2022/02/16 07:04:27;;;;;;;50.63;20.93;;;;;;;;;;5050132;28;20396;-80
2022/02/16 07:06:53;;;;;;;118.90;25.80;;;;;;;;;;5046445;28;20420;-80
2022/02/16 07:09:20;;;;;;;69.97;24.92;;;;;;;;;;5047182;28;21253;-80
2022/02/16 07:11:48;;;;;;;91.50;25.63;;;;;;;;;;5047478;28;20410;-79
2022/02/16 07:14:16;;;;;;;78.90;24.80;;;;;;;;;;5047624;28;20423;-79
2022/02/16 07:16:43;;;;;;;49.75;24.42;;;;;;;;;;5043760;28;20490;-80
2022/02/16 07:19:10;;;;;;;51.85;25.25;;;;;;;;;;5047064;28;20412;-79
2022/02/16 07:21:36;;;;;;;43.72;23.63;;;;;;;;;;5045922;28;20625;-80
2022/02/16 07:24:03;;;;;;;44.22;23.83;;;;;;;;;;5046177;28;20404;-80
2022/02/16 07:26:31;;;;;;;40.83;22.85;;;;;;;;;;5046350;28;20399;-81
2022/02/16 07:28:58;;;;;;;37.33;21.63;;;;;;;;;;5046944;28;20474;-80
2022/02/16 07:31:27;;;;;;;39.03;21.95;;;;;;;;;;5046634;28;20943;-81
2022/02/16 07:33:53;;;;;;;39.60;21.45;;;;;;;;;;5046962;28;20786;-81
2022/02/16 07:36:20;;;;;;;34.97;20.63;;;;;;;;;;5046774;28;20446;-79
2022/02/16 07:38:47;;;;;;;38.35;21.52;;;;;;;;;;5043758;28;20399;-81
2022/02/16 07:41:14;;;;;;;34.55;20.58;;;;;;;;;;5045813;28;20402;-81
2022/02/16 07:43:41;;;;;;;37.92;22.30;;;;;;;;;;5044775;28;20404;-79
2022/02/16 07:46:08;;;;;;;37.45;22.15;;;;;;;;;;5044492;28;20491;-80
2022/02/16 07:48:36;;;;;;;35.25;21.98;;;;;;;;;;5046250;28;20408;-81
2022/02/16 07:51:03;;;;;;;37.88;22.27;;;;;;;;;;5043550;28;20404;-81
2022/02/16 07:53:30;;;;;;;36.80;21.27;;;;;;;;;;5042387;28;20454;-80
2022/02/16 07:55:57;;;;;;;35.60;21.60;;;;;;;;;;5039376;28;20425;-81
2022/02/16 07:58:24;;;;;;;37.55;21.88;;;;;;;;;;5032371;28;20750;-81
2022/02/16 08:00:51;;;;;;;37.47;21.65;;;;;;;;;;5040638;28;20406;-80
2022/02/16 08:03:17;;;;;;;33.70;21.00;;;;;;;;;;5042441;28;20821;-79
2022/02/16 08:05:46;;;;;;;36.67;22.07;;;;;;;;;;5045444;28;20498;-80
2022/02/16 08:08:12;;;;;;;34.60;21.30;;;;;;;;;;5040811;28;20805;-81
2022/02/16 08:10:39;;;;;;;29.25;18.95;;;;;;;;;;5043561;28;20831;-80
2022/02/16 08:13:06;;;;;;;27.02;17.50;;;;;;;;;;5045788;28;20396;-81
2022/02/16 08:15:34;;;;;;;24.70;15.93;;;;;;;;;;5044593;28;20511;-81
2022/02/16 08:18:01;;;;;;;24.58;16.00;;;;;;;;;;5044880;28;20399;-80
2022/02/16 08:20:29;;;;;;;23.40;16.03;;;;;;;;;;5043875;28;20463;-82
2022/02/16 08:22:57;;;;;;;21.70;14.57;;;;;;;;;;5046267;28;20408;-80
2022/02/16 08:25:25;;;;;;;18.70;12.82;;;;;;;;;;5045776;28;20879;-81
2022/02/16 08:27:53;;;;;;;15.73;10.77;;;;;;;;;;5045718;28;20449;-80
2022/02/16 08:30:20;;;;;;;17.15;11.65;;;;;;;;;;5043621;28;20430;-80
2022/02/16 08:32:48;;;;;;;15.07;10.40;;;;;;;;;;5045585;28;20399;-80
2022/02/16 08:35:15;;;;;;;14.23;11.02;;;;;;;;;;5046581;28;20431;-80
2022/02/16 08:37:42;;;;;;;15.07;10.80;;;;;;;;;;5039953;28;20507;-81
2022/02/16 08:40:12;;;;;;;13.15;10.02;;;;;;;;;;5060061;28;20396;-81
2022/02/16 08:42:39;;;;;;;13.75;10.30;;;;;;;;;;5057414;28;20407;-80
2022/02/16 08:45:07;;;;;;;11.68;9.23;;;;;;;;;;5054612;28;20899;-81
2022/02/16 08:47:33;;;;;;;11.70;8.60;;;;;;;;;;5061110;28;20449;-80
2022/02/16 08:50:00;;;;;;;12.40;9.07;;;;;;;;;;5060814;28;20477;-80
2022/02/16 08:52:27;;;;;;;13.20;9.20;;;;;;;;;;5047053;28;20412;-81
2022/02/16 08:54:54;;;;;;;12.32;8.85;;;;;;;;;;5058578;28;20407;-80
2022/02/16 08:57:22;;;;;;;12.25;9.65;;;;;;;;;;5047871;28;20395;-82
2022/02/16 08:59:51;;;;;;;14.40;10.10;;;;;;;;;;5040317;28;20409;-81
2022/02/16 09:02:18;;;;;;;12.57;9.67;;;;;;;;;;5043855;28;20795;-80
2022/02/16 09:04:45;;;;;;;15.13;10.07;;;;;;;;;;5041489;28;20404;-81
2022/02/16 09:07:30;;;;;;;15.20;11.03;;;;;;;;;;5041126;28;20513;-80
2022/02/16 09:09:59;;;;;;;15.85;11.90;;;;;;;;;;5042698;28;20432;-82
2022/02/16 09:12:28;;;;;;;17.75;11.93;;;;;;;;;;5044332;28;20490;-81
2022/02/16 09:14:55;;;;;;;18.67;12.77;;;;;;;;;;5042904;28;20415;-82
2022/02/16 09:17:23;;;;;;;16.33;11.98;;;;;;;;;;5044572;28;20446;-81
2022/02/16 09:19:50;;;;;;;18.15;12.60;;;;;;;;;;5041504;28;20408;-79
2022/02/16 09:22:17;;;;;;;17.88;12.85;;;;;;;;;;5044862;28;20391;-81
2022/02/16 09:24:44;;;;;;;20.40;13.73;;;;;;;;;;5039784;28;20404;-80
2022/02/16 09:27:13;;;;;;;18.05;13.25;;;;;;;;;;5044641;28;20400;-81
2022/02/16 09:29:42;;;;;;;19.85;13.32;;;;;;;;;;5038409;28;20400;-81
2022/02/16 09:32:10;;;;;;;16.98;12.52;;;;;;;;;;5043968;28;20552;-81
2022/02/16 09:34:37;;;;;;;22.13;14.45;;;;;;;;;;5035948;28;20457;-81
2022/02/16 09:37:04;;;;;;;19.70;13.88;;;;;;;;;;5039879;28;20476;-80
2022/02/16 09:39:31;;;;;;;18.93;13.93;;;;;;;;;;5038727;28;20463;-82
2022/02/16 09:41:59;;;;;;;20.45;13.65;;;;;;;;;;5039404;28;20438;-80
2022/02/16 09:44:34;;;;;;;19.42;13.43;;;;;;;;;;5041198;28;20411;-80
2022/02/16 09:47:03;;;;;;;20.38;13.75;;;;;;;;;;5040567;28;20404;-81
2022/02/16 09:49:30;;;;;;;18.57;13.27;;;;;;;;;;5037801;28;20401;-82
2022/02/16 09:51:57;;;;;;;20.95;13.38;;;;;;;;;;5038241;28;20409;-81
2022/02/16 09:54:24;;;;;;;17.47;12.50;;;;;;;;;;5035893;28;21522;-82
2022/02/16 09:56:50;;;;;;;18.35;12.35;;;;;;;;;;5042897;28;20427;-82
2022/02/16 09:59:17;;;;;;;17.88;11.70;;;;;;;;;;5042201;28;20961;-82
2022/02/16 10:01:57;;;;;;;15.70;11.68;;;;;;;;;;5043122;28;20407;-81
2022/02/16 10:04:25;;;;;;;16.70;12.25;;;;;;;;;;5038699;28;20404;-81
2022/02/16 10:06:53;;;;;;;16.73;11.68;;;;;;;;;;5035580;28;20397;-82
2022/02/16 10:09:29;;;;;;;18.30;12.13;;;;;;;;;;5033520;28;20455;-82
2022/02/16 10:11:58;;;;;;;17.85;11.98;;;;;;;;;;5037363;28;20823;-83
2022/02/16 10:14:27;;;;;;;18.58;11.88;;;;;;;;;;5038577;28;20396;-81
2022/02/16 10:16:54;;;;;;;15.25;10.60;;;;;;;;;;5037107;28;20421;-82
2022/02/16 10:19:21;;;;;;;13.45;9.63;;;;;;;;;;5043687;28;20407;-81
2022/02/16 10:22:09;;;;;;;15.90;11.50;;;;;;;;;;5045393;28;20937;-81
2022/02/16 10:24:36;;;;;;;16.03;11.63;;;;;;;;;;5037731;28;20505;-82
2022/02/16 10:27:05;;;;;;;15.50;11.67;;;;;;;;;;5037536;28;20457;-81
2022/02/16 10:29:34;;;;;;;14.48;10.40;;;;;;;;;;5037231;28;20405;-82
2022/02/16 10:32:02;;;;;;;17.58;12.35;;;;;;;;;;5031273;28;20496;-82
2022/02/16 10:34:50;;;;;;;19.27;13.32;;;;;;;;;;5032811;28;20401;-81
2022/02/16 10:37:20;;;;;;;16.10;11.40;;;;;;;;;;5034846;28;20421;-81
2022/02/16 10:40:10;;;;;;;17.88;12.00;;;;;;;;;;5030569;28;21083;-82
2022/02/16 10:42:38;;;;;;;16.95;11.75;;;;;;;;;;5038064;28;20431;-83
2022/02/16 10:45:08;;;;;;;16.42;11.20;;;;;;;;;;5037352;28;20451;-82
2022/02/16 10:47:51;;;;;;;18.30;10.68;;;;;;;;;;5038718;28;20449;-83
2022/02/16 10:50:18;;;;;;;15.05;10.55;;;;;;;;;;5034612;28;20565;-82
2022/02/16 10:52:53;;;;;;;14.73;10.30;;;;;;;;;;5029110;28;20540;-81
2022/02/16 10:55:20;;;;;;;13.30;10.70;;;;;;;;;;5038374;28;20411;-83
2022/02/16 10:57:47;;;;;;;13.90;10.60;;;;;;;;;;5040581;28;20885;-82
2022/02/16 11:00:15;;;;;;;13.32;10.07;;;;;;;;;;5038659;28;20902;-80
2022/02/16 11:02:46;;;;;;;14.23;10.20;;;;;;;;;;5039104;28;20403;-83
2022/02/16 11:05:13;;;;;;;14.10;10.50;;;;;;;;;;5040718;28;20458;-84
2022/02/16 11:07:40;;;;;;;15.23;10.38;;;;;;;;;;5041057;28;20446;-82
2022/02/16 11:10:10;;;;;;;11.68;9.15;;;;;;;;;;5042194;28;20399;-82
2022/02/16 11:12:37;;;;;;;14.93;9.60;;;;;;;;;;5041825;28;20416;-82
2022/02/16 11:15:05;;;;;;;14.68;10.05;;;;;;;;;;5042429;28;20879;-82
2022/02/16 11:17:32;;;;;;;15.40;10.32;;;;;;;;;;5036102;28;20462;-81
2022/02/16 11:20:19;;;;;;;16.50;9.85;;;;;;;;;;5040801;28;20416;-82
2022/02/16 11:22:51;;;;;;;12.63;9.45;;;;;;;;;;5037365;28;20472;-82
2022/02/16 11:25:30;;;;;;;13.73;9.80;;;;;;;;;;5039150;28;21001;-81
2022/02/16 11:27:59;;;;;;;13.18;9.45;;;;;;;;;;5037023;28;20526;-82
2022/02/16 11:30:32;;;;;;;13.77;10.02;;;;;;;;;;5040948;28;20759;-82
2022/02/16 11:33:14;;;;;;;13.68;10.00;;;;;;;;;;5036607;28;20560;-82
2022/02/16 11:35:55;;;;;;;16.45;10.38;;;;;;;;;;5035092;28;20462;-82
2022/02/16 11:38:24;;;;;;;16.70;10.90;;;;;;;;;;5040250;28;20405;-81
2022/02/16 11:40:54;;;;;;;13.30;10.30;;;;;;;;;;5034973;28;20502;-82
2022/02/16 11:43:23;;;;;;;14.43;10.27;;;;;;;;;;5034843;28;20466;-82
2022/02/16 11:46:00;;;;;;;14.23;10.80;;;;;;;;;;5034856;28;20980;-82
2022/02/16 11:48:49;;;;;;;14.80;9.75;;;;;;;;;;5038515;28;20813;-83
2022/02/16 11:51:36;;;;;;;13.20;9.80;;;;;;;;;;5042086;28;20415;-82
2022/02/16 11:54:43;;;;;;;14.10;10.30;;;;;;;;;;5040084;28;20403;-82
2022/02/16 11:57:38;;;;;;;12.18;9.25;;;;;;;;;;5004018;28;20510;-81
2022/02/16 12:00:11;;;;;;;12.05;8.35;;;;;;;;;;5039358;28;20480;-82
2022/02/16 12:03:13;;;;;;;11.40;8.57;;;;;;;;;;5045494;28;20442;-82
2022/02/16 12:05:49;;;;;;;12.20;8.93;;;;;;;;;;5035179;28;20404;-82
2022/02/16 12:08:18;;;;;;;12.57;8.40;;;;;;;;;;5040144;28;20405;-81
2022/02/16 12:10:46;;;;;;;10.95;8.65;;;;;;;;;;5040922;28;20439;-82
2022/02/16 12:13:15;;;;;;;12.38;8.75;;;;;;;;;;5040353;28;20416;-82
2022/02/16 12:15:42;;;;;;;10.77;8.27;;;;;;;;;;5039362;28;20447;-82
2022/02/16 12:18:14;;;;;;;10.82;8.45;;;;;;;;;;5037127;28;20467;-80
2022/02/16 12:20:42;;;;;;;12.70;9.23;;;;;;;;;;5039234;28;20495;-81
2022/02/16 12:23:10;;;;;;;12.18;8.80;;;;;;;;;;5037132;28;20417;-80
2022/02/16 12:25:37;;;;;;;12.50;8.82;;;;;;;;;;5036450;28;20917;-80
2022/02/16 12:28:07;;;;;;;11.37;8.40;;;;;;;;;;5030941;28;20411;-82
2022/02/16 12:30:38;;;;;;;12.85;7.80;;;;;;;;;;5031226;28;20414;-82
2022/02/16 12:33:20;;;;;;;12.05;8.27;;;;;;;;;;5038233;28;20462;-80
2022/02/16 12:35:47;;;;;;;11.30;7.93;;;;;;;;;;5030390;28;20424;-81
2022/02/16 12:38:23;;;;;;;11.73;8.38;;;;;;;;;;5039610;28;20481;-80
2022/02/16 12:40:50;;;;;;;12.93;9.02;;;;;;;;;;5037661;28;20415;-81
2022/02/16 12:43:17;;;;;;;13.00;8.70;;;;;;;;;;5038886;28;20433;-80
2022/02/16 12:45:48;;;;;;;11.15;7.70;;;;;;;;;;5037663;28;20415;-81
2022/02/16 12:48:16;;;;;;;10.57;7.20;;;;;;;;;;5037753;28;20916;-81
2022/02/16 12:50:44;;;;;;;11.38;7.85;;;;;;;;;;5036459;28;20454;-81
2022/02/16 12:53:13;;;;;;;10.43;7.70;;;;;;;;;;5034858;28;20411;-81
2022/02/16 12:55:43;;;;;;;11.02;7.43;;;;;;;;;;5037654;28;20461;-82
2022/02/16 12:58:13;;;;;;;12.93;8.33;;;;;;;;;;5039345;28;20472;-81
2022/02/16 13:00:48;;;;;;;12.18;7.95;;;;;;;;;;5038679;28;20392;-81
2022/02/16 13:03:26;;;;;;;71.10;39.00;;;;;;;;;;5038756;28;20460;-81
2022/02/16 13:05:53;;;;;;;10.60;7.63;;;;;;;;;;5042236;28;20410;-80
2022/02/16 13:08:24;;;;;;;10.48;7.10;;;;;;;;;;5040244;28;20498;-80
2022/02/16 13:10:51;;;;;;;11.77;8.80;;;;;;;;;;5039501;28;20424;-81
2022/02/16 13:13:19;;;;;;;10.80;8.30;;;;;;;;;;5041152;28;20419;-81
2022/02/16 13:15:47;;;;;;;13.68;9.90;;;;;;;;;;5040177;28;20410;-82
2022/02/16 13:18:15;;;;;;;10.90;8.18;;;;;;;;;;5041284;28;20477;-82
2022/02/16 13:20:45;;;;;;;11.38;8.38;;;;;;;;;;5036915;28;20413;-81
2022/02/16 13:23:17;;;;;;;12.02;8.85;;;;;;;;;;5037492;28;20412;-82
2022/02/16 13:25:45;;;;;;;12.13;9.07;;;;;;;;;;5038916;28;20410;-80
2022/02/16 13:28:18;;;;;;;13.90;9.90;;;;;;;;;;5039667;28;20472;-80
2022/02/16 13:30:47;;;;;;;15.32;9.38;;;;;;;;;;5037753;28;20412;-80
2022/02/16 13:33:17;;;;;;;13.57;9.50;;;;;;;;;;5038644;28;20882;-81
2022/02/16 13:35:48;;;;;;;13.32;10.07;;;;;;;;;;5037847;28;20420;-81
2022/02/16 13:38:24;;;;;;;13.75;10.43;;;;;;;;;;5036606;28;20772;-81
2022/02/16 13:40:55;;;;;;;16.30;11.40;;;;;;;;;;5037051;28;21587;-81
2022/02/16 13:43:25;;;;;;;16.10;10.75;;;;;;;;;;5038694;28;20411;-80
2022/02/16 13:46:01;;;;;;;14.30;10.60;;;;;;;;;;5038443;28;20447;-80
2022/02/16 13:48:30;;;;;;;14.77;10.20;;;;;;;;;;5036408;28;20465;-80
2022/02/16 13:51:01;;;;;;;15.75;10.95;;;;;;;;;;5038657;28;20419;-81
2022/02/16 13:53:30;;;;;;;12.82;9.70;;;;;;;;;;5033861;28;20399;-80
2022/02/16 13:55:58;;;;;;;13.52;10.52;;;;;;;;;;5037146;28;20489;-81
2022/02/16 13:58:27;;;;;;;14.77;11.07;;;;;;;;;;5034462;28;20425;-81
2022/02/16 14:01:06;;;;;;;17.38;12.23;;;;;;;;;;5037644;28;20935;-82
2022/02/16 14:03:35;;;;;;;15.82;11.95;;;;;;;;;;5033971;28;20439;-80
2022/02/16 14:06:04;;;;;;;18.58;12.20;;;;;;;;;;5037871;28;20414;-80
2022/02/16 14:08:31;;;;;;;16.90;12.30;;;;;;;;;;5042035;28;20428;-82
2022/02/16 14:11:00;;;;;;;16.00;11.82;;;;;;;;;;5038441;28;20412;-80
2022/02/16 14:13:27;;;;;;;15.13;11.77;;;;;;;;;;5040651;28;20435;-81
2022/02/16 14:15:55;;;;;;;17.13;12.00;;;;;;;;;;5036136;28;20807;-81
2022/02/16 14:18:25;;;;;;;16.42;11.52;;;;;;;;;;5045368;28;20454;-81
2022/02/16 14:20:54;;;;;;;16.88;12.20;;;;;;;;;;5042440;28;20423;-81
2022/02/16 14:23:22;;;;;;;17.80;12.48;;;;;;;;;;5038574;28;20403;-80
2022/02/16 14:25:49;;;;;;;18.20;11.80;;;;;;;;;;5039834;28;20415;-82
2022/02/16 14:28:16;;;;;;;17.33;12.00;;;;;;;;;;5038134;28;20437;-82
2022/02/16 14:30:43;;;;;;;17.33;11.65;;;;;;;;;;5036146;28;20732;-81